Time;durP1;ratioP1;P1;durP2;ratioP2;P2;SDS_P1;SDS_P2;PMS_P1;PMS_P2;Temp;Humidity;BMP_temperature;BMP_pressure;BME280_temperature;BME280_humidity;BME280_pressure;Samples;Min_cycle;Max_cycle;Signal;HPM_P1;HPM_P2
2022/12/12 00:02:07;;;;;;;;;38.00;31.25;;;;;1.04;60.48;100507.69;5060185;28;46277;-48
2022/12/12 00:04:33;;;;;;;;;31.50;27.50;;;;;1.05;60.25;100510.31;5060195;28;45363;-45
2022/12/12 00:06:58;;;;;;;;;30.00;28.25;;;;;1.06;60.33;100509.47;5060301;28;45284;-45
2022/12/12 00:09:23;;;;;;;;;36.00;29.75;;;;;1.08;60.41;100501.72;5060046;28;45226;-47
2022/12/12 00:11:49;;;;;;;;;30.50;27.50;;;;;1.07;60.72;100508.63;5059885;28;46231;-46
2022/12/12 00:14:14;;;;;;;;;33.00;27.00;;;;;1.08;60.30;100506.91;5075979;28;45355;-53
2022/12/12 00:16:39;;;;;;;;;27.00;19.25;;;;;1.09;60.43;100508.66;5060329;28;45291;-46
2022/12/12 00:19:05;;;;;;;;;30.50;26.75;;;;;1.07;60.55;100499.97;5060181;28;45242;-46
2022/12/12 00:21:30;;;;;;;;;31.00;26.25;;;;;1.06;60.35;100511.19;5059948;28;45319;-48
2022/12/12 00:23:56;;;;;;;;;31.50;23.25;;;;;1.06;60.63;100511.19;5059841;27;45240;-47
2022/12/12 00:26:26;;;;;;;;;33.50;25.50;;;;;1.05;60.53;100512.03;5075632;28;45577;-46
2022/12/12 00:28:52;;;;;;;;;27.00;22.00;;;;;1.04;60.62;100505.09;5060034;28;45453;-47
2022/12/12 00:31:18;;;;;;;;;11.00;6.75;;;;;1.04;60.43;100507.69;5059896;28;45267;-45
2022/12/12 00:33:46;;;;;;;;;28.50;25.25;;;;;1.04;60.53;100512.88;5061370;28;45275;-47
2022/12/12 00:36:12;;;;;;;;;33.50;28.25;;;;;1.02;60.28;100519.72;5063717;28;45545;-46
2022/12/12 00:38:37;;;;;;;;;25.25;23.00;;;;;1.04;60.48;100523.22;5063262;27;45382;-46
2022/12/12 00:41:04;;;;;;;;;18.50;17.50;;;;;1.02;60.48;100510.25;5063089;28;46181;-48
2022/12/12 00:43:29;;;;;;;;;30.50;20.75;;;;;1.03;60.52;100511.09;5063444;28;45476;-45
2022/12/12 00:45:58;;;;;;;;;29.00;24.25;;;;;1.04;60.42;100510.28;5063401;28;45358;-45
2022/12/12 00:48:23;;;;;;;;;28.00;22.25;;;;;1.05;60.08;100515.47;5058677;28;45434;-45
2022/12/12 00:50:49;;;;;;;;;31.25;26.75;;;;;1.04;60.60;100518.03;5060425;28;46426;-49
2022/12/12 00:53:15;;;;;;;;;31.75;25.50;;;;;1.07;60.30;100523.25;5062733;28;45253;-50
2022/12/12 00:55:40;;;;;;;;;33.25;25.50;;;;;1.05;60.65;100522.38;5063222;28;45243;-46
2022/12/12 00:58:06;;;;;;;;;33.50;26.25;;;;;1.06;60.40;100521.53;5063180;28;45205;-46
2022/12/12 01:00:32;;;;;;;;;28.50;22.50;;;;;1.07;60.43;100525.84;5062997;28;46440;-45
2022/12/12 01:02:58;;;;;;;;;33.00;25.25;;;;;1.06;60.46;100529.31;5063057;28;45404;-45
2022/12/12 01:05:24;;;;;;;;;31.50;24.75;;;;;1.05;60.54;100524.97;5062932;28;45398;-46
2022/12/12 01:07:50;;;;;;;;;33.50;27.25;;;;;1.06;60.65;100525.00;5062815;28;45273;-46
2022/12/12 01:10:15;;;;;;;;;36.75;25.00;;;;;1.07;60.33;100525.84;5063008;28;45318;-47
2022/12/12 01:12:40;;;;;;;;;30.00;22.75;;;;;1.05;60.50;100522.38;5078330;27;45397;-47
2022/12/12 01:15:08;;;;;;;;;34.50;25.50;;;;;1.05;60.46;100514.63;5078627;28;45605;-46
2022/12/12 01:17:36;;;;;;;;;44.00;28.75;;;;;1.06;60.51;100517.22;5062821;27;45542;-48
2022/12/12 01:20:10;;;;;;;;;26.00;21.00;;;;;1.05;60.52;100512.03;5062659;28;46260;-49
2022/12/12 01:22:36;;;;;;;;;33.75;27.25;;;;;1.05;60.46;100505.13;5062493;28;45244;-50
2022/12/12 01:25:01;;;;;;;;;28.50;21.25;;;;;1.04;60.44;100513.72;5062709;27;45438;-47
2022/12/12 01:27:27;;;;;;;;;30.50;27.25;;;;;1.05;60.53;100507.72;5062787;28;45426;-49
2022/12/12 01:29:54;;;;;;;;;28.75;25.00;;;;;1.07;60.45;100507.72;5062460;28;46040;-49
2022/12/12 01:32:20;;;;;;;;;28.50;25.00;;;;;1.06;60.51;100514.63;5062768;28;45269;-46
2022/12/12 01:34:45;;;;;;;;;25.75;21.75;;;;;1.09;60.54;100517.28;5062614;28;45516;-44
2022/12/12 01:37:11;;;;;;;;;37.00;28.50;;;;;1.10;60.39;100518.19;5062579;27;45533;-45
2022/12/12 01:39:36;;;;;;;;;26.50;25.00;;;;;1.10;60.54;100513.00;5062203;28;46276;-44
2022/12/12 01:42:01;;;;;;;;;32.50;25.75;;;;;1.11;60.45;100519.94;5062456;28;45363;-47
2022/12/12 01:44:42;;;;;;;;;33.75;28.75;;;;;1.13;60.29;100520.81;5062408;28;45311;-45
2022/12/12 01:47:08;;;;;;;;;33.00;26.00;;;;;1.15;60.43;100523.47;5062571;28;45514;-46
2022/12/12 01:49:34;;;;;;;;;28.25;26.25;;;;;1.16;60.34;100523.47;5066853;28;46224;-44
2022/12/12 01:52:07;;;;;;;;;36.75;27.25;;;;;1.17;60.44;100527.81;5062159;28;45404;-46
2022/12/12 01:54:42;;;;;;;;;30.75;23.50;;;;;1.16;60.43;100527.75;5060956;28;45351;-45
2022/12/12 01:57:13;;;;;;;;;27.50;23.75;;;;;1.20;60.54;100529.59;5062034;28;45440;-48
2022/12/12 01:59:39;;;;;;;;;27.00;23.25;;;;;1.20;60.44;100532.19;5062257;28;45264;-45
2022/12/12 02:02:07;;;;;;;;;32.75;26.25;;;;;1.22;60.15;100535.66;5062088;28;45347;-45
2022/12/12 02:04:33;;;;;;;;;24.50;24.50;;;;;1.22;60.39;100533.97;5062257;28;45296;-44
2022/12/12 02:06:58;;;;;;;;;28.75;28.00;;;;;1.23;60.15;100533.13;5062357;27;45399;-45
2022/12/12 02:09:25;;;;;;;;;26.25;26.25;;;;;1.24;60.57;100532.25;5061726;28;46088;-46
2022/12/12 02:11:53;;;;;;;;;24.00;20.25;;;;;1.23;60.70;100530.53;5061718;27;45324;-46
2022/12/12 02:14:24;;;;;;;;;30.25;27.50;;;;;1.24;60.33;100528.81;5077763;28;45447;-46
2022/12/12 02:17:15;;;;;;;;;24.25;20.00;;;;;1.29;60.63;100530.63;5061861;28;45430;-45
2022/12/12 02:20:02;;;;;;;;;30.50;24.75;;;;;1.29;60.42;100524.59;5061725;28;45249;-47
2022/12/12 02:22:46;;;;;;;;;34.50;25.50;;;;;1.28;60.35;100528.03;5061717;28;45385;-45
2022/12/12 02:25:39;;;;;;;;;27.75;24.50;;;;;1.30;60.29;100526.34;5061833;28;45483;-45
2022/12/12 02:28:47;;;;;;;;;29.00;21.00;;;;;1.28;60.44;100521.16;5061551;28;45216;-46
2022/12/12 02:31:23;;;;;;;;;34.75;25.00;;;;;1.29;60.69;100516.81;5061606;28;46440;-45
2022/12/12 02:34:04;;;;;;;;;32.25;23.25;;;;;1.29;60.48;100520.28;5061732;28;45524;-45
2022/12/12 02:36:59;;;;;;;;;28.00;21.00;;;;;1.29;60.68;100519.41;5061619;28;45172;-44
2022/12/12 02:39:31;;;;;;;;;28.25;22.75;;;;;1.30;60.73;100516.00;5061335;28;45462;-46
2022/12/12 02:42:22;;;;;;;;;29.00;23.25;;;;;1.31;60.62;100525.50;5061475;28;45420;-44
2022/12/12 02:45:06;;;;;;;;;24.50;22.00;;;;;1.28;60.53;100523.75;5061512;28;45500;-45
2022/12/12 02:47:37;;;;;;;;;25.25;20.75;;;;;1.30;60.60;100527.22;5061570;28;45253;-45
2022/12/12 02:50:15;;;;;;;;;25.50;21.25;;;;;1.32;60.62;100513.44;5069057;28;45500;-45
2022/12/12 02:52:46;;;;;;;;;24.00;21.75;;;;;1.32;60.26;100521.19;5060765;28;46217;-45
2022/12/12 02:55:11;;;;;;;;;24.25;21.75;;;;;1.29;60.58;100528.03;5060297;28;45491;-45
2022/12/12 02:57:40;;;;;;;;;21.00;20.00;;;;;1.33;60.62;100522.94;5061049;27;45418;-46
2022/12/12 03:00:07;;;;;;;;;21.25;20.75;;;;;1.33;60.48;100520.34;5061444;28;45394;-47
2022/12/12 03:07:45;;;;;;;;;28.00;21.50;;;;;1.34;60.11;100522.97;5061057;28;45313;-46
2022/12/12 03:09:12;;;;;;;;;28.00;22.25;;;;;1.34;60.57;100516.94;5061018;28;45307;-45
2022/12/12 03:11:59;;;;;;;;;28.75;25.50;;;;;1.36;60.64;100515.22;5060979;28;45328;-44
2022/12/12 03:14:45;;;;;;;;;34.00;26.25;;;;;1.35;60.67;100522.13;5061294;28;45263;-46
2022/12/12 03:17:23;;;;;;;;;31.50;25.00;;;;;1.36;60.46;100526.47;5061167;28;45264;-44
2022/12/12 03:20:01;;;;;;;;;26.75;24.75;;;;;1.37;60.58;100517.88;5061218;28;45316;-46
2022/12/12 03:22:42;;;;;;;;;23.75;20.50;;;;;1.39;60.46;100507.53;5060716;28;45243;-46
2022/12/12 03:25:07;;;;;;;;;27.00;23.25;;;;;1.39;60.58;100513.56;5060649;28;45441;-48
2022/12/12 03:27:49;;;;;;;;;29.50;25.00;;;;;1.40;60.60;100514.47;5060798;28;45282;-44
2022/12/12 03:30:16;;;;;;;;;21.25;15.25;;;;;1.42;60.43;100505.00;5060975;28;45267;-46
2022/12/12 03:32:50;;;;;;;;;24.50;21.25;;;;;1.41;60.51;100503.25;5060723;28;45532;-44
2022/12/12 03:35:38;;;;;;;;;27.25;20.50;;;;;1.43;60.79;100498.97;5060811;28;47040;-45
2022/12/12 03:38:09;;;;;;;;;21.25;19.25;;;;;1.43;60.33;100511.91;5060347;28;45323;-46
2022/12/12 03:40:42;;;;;;;;;29.00;22.00;;;;;1.42;60.39;100511.06;5060995;28;45314;-47
2022/12/12 03:43:12;;;;;;;;;21.25;19.25;;;;;1.41;60.45;100504.13;5061066;27;45492;-45
2022/12/12 03:45:51;;;;;;;;;31.00;23.00;;;;;1.42;60.58;100505.00;5060437;28;45472;-47
2022/12/12 03:48:26;;;;;;;;;14.50;12.75;;;;;1.42;60.38;100507.56;5056969;28;45224;-46
2022/12/12 03:51:02;;;;;;;;;26.75;21.25;;;;;1.42;60.60;100516.25;5058169;28;45224;-45
2022/12/12 03:53:42;;;;;;;;;23.25;21.50;;;;;1.43;60.68;100523.16;5060057;28;45343;-45
2022/12/12 03:56:18;;;;;;;;;29.50;23.00;;;;;1.43;60.71;100522.28;5060295;28;45385;-48
2022/12/12 03:58:49;;;;;;;;;34.00;28.25;;;;;1.44;60.69;100524.03;5060284;28;45347;-46
2022/12/12 04:01:19;;;;;;;;;28.50;23.25;;;;;1.42;60.57;100524.00;5060581;28;45445;-46
2022/12/12 04:03:57;;;;;;;;;33.50;23.25;;;;;1.46;60.43;100535.31;5058854;28;45550;-48
2022/12/12 04:06:36;;;;;;;;;28.50;26.50;;;;;1.46;60.52;100543.06;5059977;28;45459;-45
2022/12/12 04:15:09;;;;;;;;;21.25;21.25;;;;;1.46;60.82;100543.06;5060186;28;45162;-46
2022/12/12 04:17:46;;;;;;;;;32.00;28.75;;;;;1.45;60.42;100537.00;5060023;28;46056;-45
2022/12/12 04:23:21;;;;;;;;;25.00;23.00;;;;;1.44;60.59;100539.56;5059962;28;45319;-46
2022/12/12 04:28:49;;;;;;;;;28.25;22.25;;;;;1.44;60.57;100539.56;5059913;28;45878;-46
2022/12/12 04:31:19;;;;;;;;;28.50;25.00;;;;;1.43;60.65;100537.81;5059790;28;45378;-45
2022/12/12 04:33:49;;;;;;;;;32.75;21.25;;;;;1.44;60.53;100547.34;5060062;28;45612;-46
2022/12/12 04:36:17;;;;;;;;;23.75;17.00;;;;;1.44;60.38;100549.94;5059906;28;45317;-45
2022/12/12 04:38:45;;;;;;;;;27.50;20.50;;;;;1.45;60.49;100538.72;5059545;28;46188;-45
2022/12/12 04:41:13;;;;;;;;;42.25;34.00;;;;;1.43;60.54;100545.59;5075129;28;45531;-46
2022/12/12 04:43:42;;;;;;;;;28.75;25.50;;;;;1.43;60.76;100540.41;5059961;28;45312;-45
2022/12/12 04:46:12;;;;;;;;;33.75;22.50;;;;;1.45;60.43;100549.94;5059489;28;45500;-44
2022/12/12 04:48:55;;;;;;;;;29.75;22.75;;;;;1.47;60.45;100555.16;5053249;28;46517;-47
2022/12/12 04:51:31;;;;;;;;;28.25;22.75;;;;;1.46;60.27;100554.28;5047468;28;45328;-46
2022/12/12 04:54:25;;;;;;;;;28.25;21.00;;;;;1.46;60.25;100551.72;5059601;28;45449;-45
2022/12/12 04:56:55;;;;;;;;;24.25;21.75;;;;;1.47;60.55;100552.56;5059489;28;45512;-45
2022/12/12 04:59:21;;;;;;;;;25.25;20.75;;;;;1.44;60.50;100553.38;5059545;28;46370;-47
2022/12/12 05:01:53;;;;;;;;;28.00;26.25;;;;;1.49;60.55;100550.03;5059605;28;45324;-45
2022/12/12 05:04:30;;;;;;;;;26.25;24.00;;;;;1.49;60.63;100553.47;5059573;28;45418;-45
2022/12/12 05:07:21;;;;;;;;;27.25;25.00;;;;;1.48;60.50;100543.97;5058050;28;45461;-44
2022/12/12 05:09:47;;;;;;;;;30.25;24.50;;;;;1.51;60.33;100550.91;5059333;28;45390;-45
2022/12/12 05:12:15;;;;;;;;;32.00;26.25;;;;;1.53;60.28;100554.41;5059134;28;45240;-45
2022/12/12 05:14:40;;;;;;;;;34.50;30.25;;;;;1.54;60.41;100553.59;5059690;28;45176;-45
2022/12/12 05:17:10;;;;;;;;;29.75;25.50;;;;;1.54;60.61;100559.63;5059442;28;45568;-45
2022/12/12 05:19:36;;;;;;;;;30.75;28.25;;;;;1.52;60.38;100553.53;5060424;28;46041;-45
2022/12/12 05:22:01;;;;;;;;;36.50;33.00;;;;;1.55;60.38;100561.38;5062880;28;45372;-46
2022/12/12 05:24:30;;;;;;;;;29.00;25.75;;;;;1.55;60.29;100558.78;5062578;28;45307;-44
2022/12/12 05:26:56;;;;;;;;;33.00;25.50;;;;;1.57;60.64;100569.16;5062697;28;45371;-44
2022/12/12 05:29:22;;;;;;;;;33.00;27.25;;;;;1.55;60.61;100548.44;5062595;28;46909;-44
2022/12/12 05:31:47;;;;;;;;;38.00;25.25;;;;;1.57;60.78;100556.22;5062590;28;45222;-45
2022/12/12 05:34:12;;;;;;;;;28.50;25.00;;;;;1.58;60.58;100558.84;5062819;28;45334;-44
2022/12/12 05:36:38;;;;;;;;;32.50;26.50;;;;;1.58;60.54;100551.06;5062545;28;45382;-46
2022/12/12 05:39:03;;;;;;;;;31.25;30.00;;;;;1.58;60.46;100538.09;5062264;28;45315;-46
2022/12/12 05:41:29;;;;;;;;;30.25;26.75;;;;;1.57;60.48;100540.69;5062181;28;45381;-46
2022/12/12 05:43:54;;;;;;;;;30.50;27.25;;;;;1.56;60.40;100539.81;5062469;28;45312;-45
2022/12/12 05:46:20;;;;;;;;;31.00;27.50;;;;;1.56;60.48;100545.00;5062567;28;45284;-47
2022/12/12 05:48:49;;;;;;;;;33.50;28.50;;;;;1.56;60.70;100541.50;5054762;28;45998;-46
2022/12/12 05:51:16;;;;;;;;;31.75;22.00;;;;;1.55;60.54;100545.84;5062049;28;45250;-46
2022/12/12 05:53:41;;;;;;;;;33.50;26.00;;;;;1.53;60.34;100544.06;5062296;28;45270;-46
2022/12/12 05:56:10;;;;;;;;;29.00;27.25;;;;;1.55;60.74;100553.59;5062210;28;45203;-46
2022/12/12 05:58:35;;;;;;;;;38.50;27.50;;;;;1.54;60.61;100553.59;5062188;28;46935;-46
2022/12/12 06:01:02;;;;;;;;;31.25;23.50;;;;;1.53;60.76;100544.06;5062098;28;45303;-46
2022/12/12 06:03:28;;;;;;;;;34.50;26.25;;;;;1.53;60.57;100547.50;5062341;28;45296;-45
2022/12/12 06:05:53;;;;;;;;;30.25;26.00;;;;;1.52;60.58;100556.13;5062061;28;45420;-44
2022/12/12 06:08:18;;;;;;;;;38.75;28.50;;;;;1.53;60.74;100562.19;5061823;28;45149;-44
2022/12/12 06:10:44;;;;;;;;;39.25;33.00;;;;;1.50;60.47;100552.66;5077737;28;45304;-44
2022/12/12 06:13:10;;;;;;;;;34.25;27.75;;;;;1.52;60.42;100558.72;5062008;28;45218;-46
2022/12/12 06:15:39;;;;;;;;;32.50;28.25;;;;;1.50;60.47;100550.06;5061979;28;45236;-45
2022/12/12 06:18:04;;;;;;;;;29.00;25.50;;;;;1.52;60.51;100553.53;5061757;28;46244;-45
2022/12/12 06:20:30;;;;;;;;;31.75;26.25;;;;;1.50;60.64;100550.06;5061908;28;45393;-44
2022/12/12 06:22:56;;;;;;;;;44.00;27.25;;;;;1.51;60.52;100562.16;5061641;28;45334;-45
2022/12/12 06:25:21;;;;;;;;;38.50;28.75;;;;;1.48;60.56;100551.72;5077333;28;45285;-45
2022/12/12 06:27:47;;;;;;;;;28.75;26.75;;;;;1.52;60.30;100561.31;5061412;28;45963;-44
2022/12/12 06:30:12;;;;;;;;;36.75;31.50;;;;;1.52;60.56;100571.66;5061602;28;45406;-45
2022/12/12 06:32:38;;;;;;;;;29.00;27.75;;;;;1.51;60.28;100572.53;5060988;28;45174;-45
2022/12/12 06:35:03;;;;;;;;;33.75;29.00;;;;;1.51;60.47;100572.53;5061520;28;45465;-48
2022/12/12 06:37:29;;;;;;;;;29.00;25.75;;;;;1.51;60.59;100569.94;5061079;28;46377;-48
2022/12/12 06:39:54;;;;;;;;;30.00;25.50;;;;;1.48;60.50;100572.44;5077055;28;45299;-47
2022/12/12 06:42:19;;;;;;;;;29.00;26.25;;;;;1.46;60.76;100563.78;5061298;28;45253;-47
2022/12/12 06:44:45;;;;;;;;;33.00;26.25;;;;;1.47;60.22;100570.69;5061242;27;45185;-48
2022/12/12 06:47:10;;;;;;;;;41.50;31.25;;;;;1.45;60.35;100568.09;5061151;28;45251;-47
2022/12/12 06:49:36;;;;;;;;;36.00;27.50;;;;;1.45;60.69;100562.03;5053737;28;45349;-47
2022/12/12 06:52:01;;;;;;;;;28.50;26.75;;;;;1.43;60.59;100561.13;5060923;28;45285;-46
2022/12/12 06:54:27;;;;;;;;;36.25;31.75;;;;;1.45;60.64;100573.25;5061559;28;45211;-45
2022/12/12 06:56:52;;;;;;;;;29.50;26.75;;;;;1.45;60.29;100573.25;5060937;28;46230;-46
2022/12/12 06:59:17;;;;;;;;;28.75;23.25;;;;;1.46;60.53;100576.75;5060022;28;45520;-45
2022/12/12 07:01:43;;;;;;;;;31.75;25.25;;;;;1.42;60.41;100568.03;5061215;28;45485;-45
2022/12/12 07:04:10;;;;;;;;;39.25;32.00;;;;;1.42;60.64;100559.38;5061109;28;45564;-46
2022/12/12 07:06:36;;;;;;;;;28.50;25.25;;;;;1.39;60.30;100546.38;5060886;28;46184;-44
2022/12/12 07:09:01;;;;;;;;;32.75;28.25;;;;;1.43;60.40;100548.19;5060752;28;45330;-48
2022/12/12 07:11:27;;;;;;;;;36.25;25.75;;;;;1.38;60.49;100544.63;5061022;28;45387;-47
2022/12/12 07:13:55;;;;;;;;;38.25;30.50;;;;;1.40;60.27;100554.16;5061054;28;45556;-47
2022/12/12 07:16:20;;;;;;;;;38.00;32.75;;;;;1.40;60.39;100561.06;5060936;28;45375;-46
2022/12/12 07:18:46;;;;;;;;;39.00;31.25;;;;;1.40;60.39;100568.84;5060960;28;45162;-45
2022/12/12 07:21:14;;;;;;;;;30.75;29.00;;;;;1.39;60.56;100573.13;5061099;28;45464;-45
2022/12/12 07:23:40;;;;;;;;;36.00;27.50;;;;;1.39;60.31;100577.44;5060546;28;45391;-45
2022/12/12 07:26:10;;;;;;;;;24.75;18.50;;;;;1.39;60.51;100582.63;5060435;28;46281;-46
2022/12/12 07:28:37;;;;;;;;;36.75;30.50;;;;;1.38;60.42;100578.28;5060764;28;45375;-47
2022/12/12 07:31:07;;;;;;;;;41.00;35.75;;;;;1.37;60.54;100586.91;5060630;28;45189;-45
2022/12/12 07:33:32;;;;;;;;;32.50;28.75;;;;;1.37;60.54;100590.38;5060841;28;45306;-46
2022/12/12 07:35:58;;;;;;;;;46.25;33.75;;;;;1.34;60.65;100581.66;5060534;28;46185;-46
2022/12/12 07:38:24;;;;;;;;;43.75;39.75;;;;;1.35;60.31;100596.38;5060514;28;45264;-47
2022/12/12 07:40:50;;;;;;;;;39.25;30.25;;;;;1.35;60.54;100598.97;5060545;28;45343;-46
2022/12/12 07:43:15;;;;;;;;;36.50;30.50;;;;;1.31;60.66;100590.25;5060336;28;45395;-46
2022/12/12 07:45:44;;;;;;;;;34.25;28.25;;;;;1.31;60.67;100595.41;5060232;28;46192;-46
2022/12/12 07:48:11;;;;;;;;;35.50;25.25;;;;;1.30;60.32;100585.91;5057753;28;45323;-45
2022/12/12 07:50:37;;;;;;;;;47.75;39.25;;;;;1.25;60.65;100570.25;5055583;28;45357;-46
2022/12/12 07:53:03;;;;;;;;;41.00;33.25;;;;;1.29;60.58;100574.66;5059913;28;45446;-44
2022/12/12 07:55:28;;;;;;;;;31.00;24.75;;;;;1.28;60.29;100588.47;5060109;28;46037;-47
2022/12/12 07:57:54;;;;;;;;;36.50;28.25;;;;;1.28;60.42;100595.34;5060283;28;45259;-45
2022/12/12 08:00:20;;;;;;;;;38.50;32.75;;;;;1.27;60.47;100601.34;5060288;28;45471;-46
2022/12/12 08:02:46;;;;;;;;;33.00;29.75;;;;;1.24;60.50;100599.56;5060207;28;45507;-47
2022/12/12 08:05:12;;;;;;;;;39.75;33.75;;;;;1.24;60.31;100599.56;5059929;28;46185;-48
2022/12/12 08:07:37;;;;;;;;;33.00;26.50;;;;;1.23;60.32;100608.22;5060248;28;45271;-46
2022/12/12 08:10:03;;;;;;;;;45.75;35.00;;;;;1.23;60.51;100615.09;5060144;28;45427;-49
2022/12/12 08:12:29;;;;;;;;;39.75;30.25;;;;;1.21;60.30;100624.53;5059976;28;45231;-47
2022/12/12 08:14:55;;;;;;;;;36.50;28.75;;;;;1.20;60.17;100617.63;5059713;28;45317;-47
2022/12/12 08:17:20;;;;;;;;;34.50;28.50;;;;;1.19;60.13;100621.03;5060291;28;45315;-46
2022/12/12 08:19:45;;;;;;;;;43.50;31.50;;;;;1.16;60.34;100624.44;5059933;28;45409;-45
2022/12/12 08:22:11;;;;;;;;;39.75;31.25;;;;;1.12;60.46;100622.63;5059614;28;45347;-46
2022/12/12 08:24:36;;;;;;;;;47.00;33.75;;;;;1.08;60.18;100615.63;5059626;28;45334;-47
2022/12/12 08:27:02;;;;;;;;;36.50;31.25;;;;;1.09;60.51;100607.88;5059676;28;45399;-47
2022/12/12 08:29:27;;;;;;;;;35.75;31.50;;;;;1.11;60.23;100610.53;5059752;28;45277;-44
2022/12/12 08:31:52;;;;;;;;;33.50;26.75;;;;;1.12;60.20;100614.88;5059755;28;45332;-45
2022/12/12 08:34:18;;;;;;;;;39.25;33.50;;;;;1.10;60.21;100617.41;5059582;28;45355;-44
2022/12/12 08:36:44;;;;;;;;;42.75;33.25;;;;;1.11;60.50;100615.69;5059758;28;45220;-44
2022/12/12 08:39:11;;;;;;;;;39.25;26.25;;;;;1.11;60.45;100624.31;5059528;27;45241;-46
2022/12/12 08:41:39;;;;;;;;;35.25;28.50;;;;;1.11;60.37;100629.50;5059584;28;45244;-46
2022/12/12 08:44:09;;;;;;;;;42.50;31.75;;;;;1.11;60.29;100646.75;5059429;28;46147;-48
2022/12/12 08:46:35;;;;;;;;;39.50;31.50;;;;;1.07;60.25;100642.31;5059816;28;45314;-45
2022/12/12 08:49:01;;;;;;;;;41.75;29.00;;;;;1.08;60.48;100649.25;5052141;28;45301;-47
2022/12/12 08:51:26;;;;;;;;;40.00;34.00;;;;;1.06;60.20;100656.13;5059363;28;45433;-47
2022/12/12 08:53:52;;;;;;;;;34.00;30.00;;;;;1.10;60.47;100657.94;5059228;28;46514;-47
2022/12/12 08:56:19;;;;;;;;;37.25;29.25;;;;;1.10;59.96;100652.78;5063124;28;45361;-44
2022/12/12 08:58:45;;;;;;;;;44.50;33.25;;;;;1.09;60.32;100649.28;5063120;28;45458;-45
2022/12/12 09:01:20;;;;;;;;;40.25;36.50;;;;;1.07;60.42;100648.41;5063105;28;45316;-44
2022/12/12 09:03:46;;;;;;;;;43.25;33.50;;;;;1.05;60.48;100647.47;5062973;28;45412;-45
2022/12/12 09:06:13;;;;;;;;;46.75;32.00;;;;;1.09;60.39;100664.81;5062775;28;45410;-45
2022/12/12 09:08:39;;;;;;;;;44.00;39.50;;;;;1.05;60.59;100655.25;5062907;28;45215;-45
2022/12/12 09:11:04;;;;;;;;;46.25;39.25;;;;;1.10;60.44;100653.63;5062657;28;45505;-46
2022/12/12 09:13:30;;;;;;;;;38.25;33.75;;;;;1.10;60.58;100653.63;5062723;28;46077;-46
2022/12/12 09:15:56;;;;;;;;;44.75;37.00;;;;;1.10;60.56;100664.00;5062880;28;45246;-46
2022/12/12 09:18:22;;;;;;;;;45.00;35.50;;;;;1.08;60.22;100660.50;5062808;28;45317;-45
2022/12/12 09:20:53;;;;;;;;;36.75;36.25;;;;;1.07;60.73;100660.44;5062746;28;45253;-45
2022/12/12 09:23:19;;;;;;;;;34.25;31.75;;;;;1.07;60.63;100647.50;5062237;28;46251;-44
2022/12/12 09:25:45;;;;;;;;;44.25;38.25;;;;;1.06;60.44;100641.47;5062509;28;45235;-44
2022/12/12 09:28:11;;;;;;;;;46.00;36.25;;;;;1.05;60.42;100634.53;5062531;28;45230;-45
2022/12/12 09:30:37;;;;;;;;;45.75;38.25;;;;;1.06;60.58;100635.44;5061480;28;45372;-45
2022/12/12 09:33:02;;;;;;;;;42.00;31.25;;;;;1.07;60.38;100642.31;5061409;28;46449;-46
2022/12/12 09:35:28;;;;;;;;;38.00;34.25;;;;;1.07;60.43;100642.31;5062481;28;45474;-46
2022/12/12 09:37:53;;;;;;;;;40.25;34.75;;;;;1.09;60.54;100651.00;5062441;28;45356;-49
2022/12/12 09:40:28;;;;;;;;;35.25;31.75;;;;;1.07;60.43;100647.50;5062746;28;45453;-46
2022/12/12 09:42:54;;;;;;;;;44.00;36.00;;;;;1.06;60.54;100644.06;5062200;28;46400;-45
2022/12/12 09:45:20;;;;;;;;;40.25;36.25;;;;;1.08;60.58;100644.09;5062405;28;45336;-45
2022/12/12 09:47:49;;;;;;;;;34.50;28.00;;;;;1.10;60.54;100637.25;5062617;28;45299;-47
2022/12/12 09:50:26;;;;;;;;;43.50;33.50;;;;;1.11;60.50;100636.41;5054570;28;45158;-45
2022/12/12 09:52:55;;;;;;;;;39.75;35.75;;;;;1.15;60.40;100639.94;5060576;28;46425;-45
2022/12/12 09:55:49;;;;;;;;;40.75;35.75;;;;;1.16;60.21;100632.22;5062197;28;45253;-47
2022/12/12 09:58:36;;;;;;;;;40.00;34.25;;;;;1.20;60.57;100638.31;5062366;28;45298;-45
2022/12/12 10:01:22;;;;;;;;;45.00;38.00;;;;;1.21;60.56;100640.06;5049686;28;45336;-45
2022/12/12 10:04:10;;;;;;;;;40.25;34.50;;;;;1.25;60.35;100629.81;5061916;28;46220;-45
2022/12/12 10:06:55;;;;;;;;;36.00;33.75;;;;;1.25;60.63;100635.00;5060655;28;45173;-47
2022/12/12 10:09:30;;;;;;;;;40.75;36.75;;;;;1.27;60.31;100633.31;5062088;28;45271;-47
2022/12/12 10:11:58;;;;;;;;;42.75;36.75;;;;;1.29;60.41;100628.16;5061862;28;45379;-44
2022/12/12 10:14:38;;;;;;;;;46.50;35.50;;;;;1.29;60.55;100617.81;5061790;28;46300;-45
2022/12/12 10:17:18;;;;;;;;;43.50;40.50;;;;;1.30;60.42;100610.06;5061801;28;45438;-45
2022/12/12 10:19:52;;;;;;;;;51.00;37.25;;;;;1.32;60.03;100610.13;5061954;28;45300;-46
2022/12/12 10:22:33;;;;;;;;;43.50;39.75;;;;;1.35;60.30;100598.97;5077222;28;45432;-46
2022/12/12 10:25:14;;;;;;;;;56.25;46.50;;;;;1.36;60.64;100593.81;5061463;28;46189;-45
2022/12/12 10:27:40;;;;;;;;;97.67;72.33;;;;;1.41;60.49;100599.06;5061799;28;45474;-44
2022/12/12 10:30:14;;;;;;;;;69.25;51.00;;;;;1.45;60.37;100604.34;5061818;28;45405;-45
2022/12/12 10:33:07;;;;;;;;;52.00;41.25;;;;;1.49;60.47;100601.84;5061697;28;45319;-46
2022/12/12 10:35:46;;;;;;;;;27.00;16.25;;;;;1.52;60.23;100612.25;5061632;28;45303;-44
2022/12/12 10:38:55;;;;;;;;;42.25;37.00;;;;;1.57;60.16;100623.56;5061500;28;45379;-44
2022/12/12 10:41:41;;;;;;;;;40.75;34.25;;;;;1.55;60.58;100626.13;5061390;28;45474;-46
2022/12/12 10:44:20;;;;;;;;;38.00;36.50;;;;;1.58;60.47;100630.50;5061491;28;45264;-44
2022/12/12 10:47:02;;;;;;;;;42.75;39.25;;;;;1.60;60.44;100616.75;5061280;28;46382;-45
2022/12/12 10:49:29;;;;;;;;;77.33;58.67;;;;;1.62;60.55;100617.66;5053352;28;45340;-44
2022/12/12 10:51:56;;;;;;;;;50.00;40.50;;;;;1.64;60.39;100603.88;5061065;28;45391;-44
2022/12/12 10:54:26;;;;;;;;;39.25;31.00;;;;;1.66;60.53;100605.63;5061283;28;45331;-45
2022/12/12 10:57:22;;;;;;;;;52.00;39.00;;;;;1.69;60.67;100591.88;5061169;28;47041;-45
2022/12/12 10:59:54;;;;;;;;;41.50;38.00;;;;;1.72;60.18;100589.31;5061174;28;45422;-45
2022/12/12 11:02:40;;;;;;;;;39.25;33.25;;;;;1.76;60.12;100573.88;5061345;28;45181;-44
2022/12/12 11:05:17;;;;;;;;;42.25;31.25;;;;;1.82;60.67;100577.44;5061034;28;45292;-48
2022/12/12 11:07:56;;;;;;;;;43.75;33.75;;;;;1.87;60.38;100578.38;5060925;28;46279;-45
2022/12/12 11:10:33;;;;;;;;;45.00;39.25;;;;;1.98;60.42;100570.81;5061144;28;45264;-46
2022/12/12 11:13:17;;;;;;;;;40.00;37.25;;;;;2.08;60.75;100559.75;5061051;28;45252;-47
2022/12/12 11:15:51;;;;;;;;;44.25;37.50;;;;;2.18;60.49;100550.44;5061115;28;45556;-44
2022/12/12 11:18:21;;;;;;;;;38.75;34.00;;;;;2.26;60.83;100541.94;5060276;28;46623;-45
2022/12/12 11:20:55;;;;;;;;;39.00;35.50;;;;;2.38;60.87;100536.06;5061056;28;45338;-47
2022/12/12 11:23:27;;;;;;;;;45.75;38.25;;;;;2.52;60.80;100519.84;5060668;28;45192;-46
2022/12/12 11:25:58;;;;;;;;;42.75;38.25;;;;;2.67;60.60;100512.28;5060806;28;45320;-48
2022/12/12 11:28:28;;;;;;;;;57.75;40.50;;;;;2.83;60.86;100503.00;5060582;28;46298;-46
2022/12/12 11:30:55;;;;;;;;;42.50;34.25;;;;;2.98;60.59;100504.03;5060809;28;45204;-48
2022/12/12 11:33:30;;;;;;;;;44.75;37.50;;;;;3.14;61.07;100505.13;5060933;28;45240;-47
2022/12/12 11:35:56;;;;;;;;;41.50;33.75;;;;;3.24;60.60;100494.84;5060600;28;45571;-45
2022/12/12 11:38:38;;;;;;;;;58.00;42.50;;;;;3.47;60.60;100503.78;5060473;28;45694;-44
2022/12/12 11:41:07;;;;;;;;;73.25;56.25;;;;;3.64;60.40;100499.63;5060452;28;45263;-46
2022/12/12 11:43:47;;;;;;;;;49.25;43.25;;;;;3.84;60.38;100496.38;5060802;28;45297;-45
2022/12/12 11:46:15;;;;;;;;;51.50;38.50;;;;;3.99;60.40;100493.03;5060207;28;45257;-44
2022/12/12 11:48:50;;;;;;;;;49.50;39.75;;;;;4.13;60.40;100496.63;5053440;28;45201;-46